sensor_id;sensor_type;location;lat;lon;timestamp;temperature;humidity
22491;DHT22;11412;50.802;4.350;2023-07-31T00:00:48;17.70;99.90
22491;DHT22;11412;50.802;4.350;2023-07-31T00:03:13;17.80;99.90
22491;DHT22;11412;50.802;4.350;2023-07-31T00:05:39;17.80;99.90
22491;DHT22;11412;50.802;4.350;2023-07-31T00:08:05;17.70;99.90
22491;DHT22;11412;50.802;4.350;2023-07-31T00:10:30;17.70;99.90
22491;DHT22;11412;50.802;4.350;2023-07-31T00:12:56;17.70;99.90
22491;DHT22;11412;50.802;4.350;2023-07-31T00:15:22;17.60;99.90
22491;DHT22;11412;50.802;4.350;2023-07-31T00:17:47;17.60;99.90
22491;DHT22;11412;50.802;4.350;2023-07-31T00:20:13;17.60;99.90
22491;DHT22;11412;50.802;4.350;2023-07-31T00:22:39;17.50;99.90
22491;DHT22;11412;50.802;4.350;2023-07-31T00:25:04;17.60;99.90
22491;DHT22;11412;50.802;4.350;2023-07-31T00:27:32;17.60;99.90
22491;DHT22;11412;50.802;4.350;2023-07-31T00:29:57;17.70;99.90
22491;DHT22;11412;50.802;4.350;2023-07-31T00:32:23;17.80;99.90
22491;DHT22;11412;50.802;4.350;2023-07-31T00:34:49;17.80;99.90
22491;DHT22;11412;50.802;4.350;2023-07-31T00:37:14;17.70;99.90
22491;DHT22;11412;50.802;4.350;2023-07-31T00:39:41;17.90;99.90
22491;DHT22;11412;50.802;4.350;2023-07-31T00:42:07;18.00;99.90
22491;DHT22;11412;50.802;4.350;2023-07-31T00:44:33;18.00;99.90
22491;DHT22;11412;50.802;4.350;2023-07-31T00:46:58;18.00;99.90
22491;DHT22;11412;50.802;4.350;2023-07-31T00:49:26;18.10;99.90
22491;DHT22;11412;50.802;4.350;2023-07-31T00:51:51;18.10;99.90
22491;DHT22;11412;50.802;4.350;2023-07-31T00:54:17;18.10;99.90
22491;DHT22;11412;50.802;4.350;2023-07-31T00:56:45;18.00;99.90
22491;DHT22;11412;50.802;4.350;2023-07-31T00:59:11;18.00;99.90
22491;DHT22;11412;50.802;4.350;2023-07-31T01:01:37;18.00;99.90
22491;DHT22;11412;50.802;4.350;2023-07-31T01:04:04;18.30;99.90
22491;DHT22;11412;50.802;4.350;2023-07-31T01:06:38;18.20;99.90
22491;DHT22;11412;50.802;4.350;2023-07-31T01:09:20;18.10;99.90
22491;DHT22;11412;50.802;4.350;2023-07-31T01:11:56;18.10;99.90
22491;DHT22;11412;50.802;4.350;2023-07-31T01:14:22;18.20;99.90
22491;DHT22;11412;50.802;4.350;2023-07-31T01:16:48;18.10;99.90
22491;DHT22;11412;50.802;4.350;2023-07-31T01:19:14;18.10;99.90
22491;DHT22;11412;50.802;4.350;2023-07-31T01:21:58;17.90;99.90
22491;DHT22;11412;50.802;4.350;2023-07-31T01:27:19;18.00;99.90
22491;DHT22;11412;50.802;4.350;2023-07-31T01:32:19;18.00;99.90
22491;DHT22;11412;50.802;4.350;2023-07-31T01:34:46;17.90;99.90
22491;DHT22;11412;50.802;4.350;2023-07-31T01:37:12;17.90;99.90
22491;DHT22;11412;50.802;4.350;2023-07-31T01:39:37;17.80;99.90
22491;DHT22;11412;50.802;4.350;2023-07-31T01:42:03;17.80;99.90
22491;DHT22;11412;50.802;4.350;2023-07-31T01:44:29;18.00;99.90
22491;DHT22;11412;50.802;4.350;2023-07-31T01:46:55;18.00;99.90
22491;DHT22;11412;50.802;4.350;2023-07-31T01:49:20;17.90;99.90
22491;DHT22;11412;50.802;4.350;2023-07-31T01:51:46;18.10;99.90
22491;DHT22;11412;50.802;4.350;2023-07-31T01:54:11;18.20;99.90
22491;DHT22;11412;50.802;4.350;2023-07-31T01:56:37;18.20;99.90
22491;DHT22;11412;50.802;4.350;2023-07-31T01:59:03;18.10;99.90
22491;DHT22;11412;50.802;4.350;2023-07-31T02:01:29;18.00;99.90
22491;DHT22;11412;50.802;4.350;2023-07-31T02:03:55;18.00;99.90
22491;DHT22;11412;50.802;4.350;2023-07-31T02:06:21;17.90;99.90
22491;DHT22;11412;50.802;4.350;2023-07-31T02:08:48;17.90;99.90
22491;DHT22;11412;50.802;4.350;2023-07-31T02:11:13;17.90;99.90
22491;DHT22;11412;50.802;4.350;2023-07-31T02:13:39;18.10;99.90
22491;DHT22;11412;50.802;4.350;2023-07-31T02:16:04;18.10;99.90
22491;DHT22;11412;50.802;4.350;2023-07-31T02:18:30;18.20;99.90
22491;DHT22;11412;50.802;4.350;2023-07-31T02:20:58;18.40;99.90
22491;DHT22;11412;50.802;4.350;2023-07-31T02:23:23;18.40;99.90
22491;DHT22;11412;50.802;4.350;2023-07-31T02:25:49;18.40;99.90
22491;DHT22;11412;50.802;4.350;2023-07-31T02:28:14;18.40;99.90
22491;DHT22;11412;50.802;4.350;2023-07-31T02:30:42;18.30;99.90
22491;DHT22;11412;50.802;4.350;2023-07-31T02:33:09;18.20;99.90
22491;DHT22;11412;50.802;4.350;2023-07-31T02:35:34;18.20;99.90
22491;DHT22;11412;50.802;4.350;2023-07-31T02:38:00;18.10;99.90
22491;DHT22;11412;50.802;4.350;2023-07-31T02:40:26;18.00;99.90
22491;DHT22;11412;50.802;4.350;2023-07-31T02:42:51;18.20;99.90
22491;DHT22;11412;50.802;4.350;2023-07-31T02:45:17;18.10;99.90
22491;DHT22;11412;50.802;4.350;2023-07-31T02:47:42;18.00;99.90
22491;DHT22;11412;50.802;4.350;2023-07-31T02:50:08;18.10;99.90
22491;DHT22;11412;50.802;4.350;2023-07-31T02:52:34;18.10;99.90
22491;DHT22;11412;50.802;4.350;2023-07-31T02:55:00;18.10;99.90
22491;DHT22;11412;50.802;4.350;2023-07-31T02:57:25;18.20;99.90
22491;DHT22;11412;50.802;4.350;2023-07-31T02:59:51;18.20;99.90
22491;DHT22;11412;50.802;4.350;2023-07-31T03:02:17;18.20;99.90
22491;DHT22;11412;50.802;4.350;2023-07-31T03:04:42;18.20;99.90
22491;DHT22;11412;50.802;4.350;2023-07-31T03:07:08;18.20;99.90
22491;DHT22;11412;50.802;4.350;2023-07-31T03:09:33;18.40;99.90
22491;DHT22;11412;50.802;4.350;2023-07-31T03:11:59;18.30;99.90
22491;DHT22;11412;50.802;4.350;2023-07-31T03:14:25;18.10;99.90
22491;DHT22;11412;50.802;4.350;2023-07-31T03:16:52;18.20;99.90
22491;DHT22;11412;50.802;4.350;2023-07-31T03:19:17;18.00;99.90
22491;DHT22;11412;50.802;4.350;2023-07-31T03:21:43;18.00;99.90
22491;DHT22;11412;50.802;4.350;2023-07-31T03:24:09;18.00;99.90
22491;DHT22;11412;50.802;4.350;2023-07-31T03:26:34;18.00;99.90
22491;DHT22;11412;50.802;4.350;2023-07-31T03:29:01;17.90;99.90
22491;DHT22;11412;50.802;4.350;2023-07-31T03:31:27;18.00;99.90
22491;DHT22;11412;50.802;4.350;2023-07-31T03:33:53;18.20;99.90
22491;DHT22;11412;50.802;4.350;2023-07-31T03:36:18;18.20;99.90
22491;DHT22;11412;50.802;4.350;2023-07-31T03:38:46;18.20;99.90
22491;DHT22;11412;50.802;4.350;2023-07-31T03:41:12;18.10;99.90
22491;DHT22;11412;50.802;4.350;2023-07-31T03:43:37;18.00;99.90
22491;DHT22;11412;50.802;4.350;2023-07-31T03:46:03;18.00;99.90
22491;DHT22;11412;50.802;4.350;2023-07-31T03:48:29;17.90;99.90
22491;DHT22;11412;50.802;4.350;2023-07-31T03:50:56;18.00;99.90
22491;DHT22;11412;50.802;4.350;2023-07-31T03:53:21;18.00;99.90
22491;DHT22;11412;50.802;4.350;2023-07-31T03:55:47;17.90;99.90
22491;DHT22;11412;50.802;4.350;2023-07-31T03:58:13;18.00;99.90
22491;DHT22;11412;50.802;4.350;2023-07-31T04:00:40;18.20;99.90
22491;DHT22;11412;50.802;4.350;2023-07-31T04:03:06;18.20;99.90
22491;DHT22;11412;50.802;4.350;2023-07-31T04:05:32;18.10;99.90
22491;DHT22;11412;50.802;4.350;2023-07-31T04:07:58;18.00;99.90
22491;DHT22;11412;50.802;4.350;2023-07-31T04:10:24;17.90;99.90
22491;DHT22;11412;50.802;4.350;2023-07-31T04:12:49;18.00;99.90
22491;DHT22;11412;50.802;4.350;2023-07-31T04:15:15;18.20;99.90
22491;DHT22;11412;50.802;4.350;2023-07-31T04:17:40;18.10;99.90
22491;DHT22;11412;50.802;4.350;2023-07-31T04:20:06;18.00;99.90
22491;DHT22;11412;50.802;4.350;2023-07-31T04:22:32;18.00;99.90
22491;DHT22;11412;50.802;4.350;2023-07-31T04:24:58;18.00;99.90
22491;DHT22;11412;50.802;4.350;2023-07-31T04:27:23;17.90;99.90
22491;DHT22;11412;50.802;4.350;2023-07-31T04:29:49;17.90;99.90
22491;DHT22;11412;50.802;4.350;2023-07-31T04:32:15;17.90;99.90
22491;DHT22;11412;50.802;4.350;2023-07-31T04:34:44;18.10;99.90
22491;DHT22;11412;50.802;4.350;2023-07-31T04:37:10;17.90;99.90
22491;DHT22;11412;50.802;4.350;2023-07-31T04:39:35;18.10;99.90
22491;DHT22;11412;50.802;4.350;2023-07-31T04:42:01;18.00;99.90
22491;DHT22;11412;50.802;4.350;2023-07-31T04:44:27;17.90;99.90
22491;DHT22;11412;50.802;4.350;2023-07-31T04:46:52;18.00;99.90
22491;DHT22;11412;50.802;4.350;2023-07-31T04:49:18;18.10;99.90
22491;DHT22;11412;50.802;4.350;2023-07-31T04:51:44;18.10;99.90
22491;DHT22;11412;50.802;4.350;2023-07-31T04:54:10;18.20;99.90
22491;DHT22;11412;50.802;4.350;2023-07-31T04:56:38;18.00;99.90
22491;DHT22;11412;50.802;4.350;2023-07-31T04:59:03;18.10;99.90
22491;DHT22;11412;50.802;4.350;2023-07-31T05:01:29;18.30;99.90
22491;DHT22;11412;50.802;4.350;2023-07-31T05:03:55;18.10;99.90
22491;DHT22;11412;50.802;4.350;2023-07-31T05:06:20;18.00;99.90
22491;DHT22;11412;50.802;4.350;2023-07-31T05:08:46;18.20;99.90
22491;DHT22;11412;50.802;4.350;2023-07-31T05:11:12;18.20;99.90
22491;DHT22;11412;50.802;4.350;2023-07-31T05:13:37;18.10;99.90
22491;DHT22;11412;50.802;4.350;2023-07-31T05:16:03;18.00;99.90
22491;DHT22;11412;50.802;4.350;2023-07-31T05:18:29;17.90;99.90
22491;DHT22;11412;50.802;4.350;2023-07-31T05:20:55;18.00;99.90
22491;DHT22;11412;50.802;4.350;2023-07-31T05:23:20;17.80;99.90
22491;DHT22;11412;50.802;4.350;2023-07-31T05:25:46;17.90;99.90
22491;DHT22;11412;50.802;4.350;2023-07-31T05:28:12;17.80;99.90
22491;DHT22;11412;50.802;4.350;2023-07-31T05:30:38;17.70;99.90
22491;DHT22;11412;50.802;4.350;2023-07-31T05:33:04;17.80;99.90
22491;DHT22;11412;50.802;4.350;2023-07-31T05:35:29;17.90;99.90
22491;DHT22;11412;50.802;4.350;2023-07-31T05:37:55;18.10;99.90
22491;DHT22;11412;50.802;4.350;2023-07-31T05:40:20;18.00;99.90
22491;DHT22;11412;50.802;4.350;2023-07-31T05:42:46;17.90;99.90
22491;DHT22;11412;50.802;4.350;2023-07-31T05:45:12;17.70;99.90
22491;DHT22;11412;50.802;4.350;2023-07-31T05:47:39;17.70;99.90
22491;DHT22;11412;50.802;4.350;2023-07-31T05:50:05;17.70;99.90
22491;DHT22;11412;50.802;4.350;2023-07-31T05:52:31;17.80;99.90
22491;DHT22;11412;50.802;4.350;2023-07-31T05:54:57;18.00;99.90
22491;DHT22;11412;50.802;4.350;2023-07-31T05:57:22;17.90;99.90
22491;DHT22;11412;50.802;4.350;2023-07-31T05:59:48;17.90;99.90
22491;DHT22;11412;50.802;4.350;2023-07-31T06:02:14;17.80;99.90
22491;DHT22;11412;50.802;4.350;2023-07-31T06:04:39;17.70;99.90
22491;DHT22;11412;50.802;4.350;2023-07-31T06:07:05;17.70;99.90
22491;DHT22;11412;50.802;4.350;2023-07-31T06:09:31;17.60;99.90
22491;DHT22;11412;50.802;4.350;2023-07-31T06:11:56;17.40;99.90
22491;DHT22;11412;50.802;4.350;2023-07-31T06:14:22;17.40;99.90
22491;DHT22;11412;50.802;4.350;2023-07-31T06:16:48;17.40;99.90
22491;DHT22;11412;50.802;4.350;2023-07-31T06:19:13;17.30;99.90
22491;DHT22;11412;50.802;4.350;2023-07-31T06:21:39;17.50;99.90
22491;DHT22;11412;50.802;4.350;2023-07-31T06:24:07;17.50;99.90
22491;DHT22;11412;50.802;4.350;2023-07-31T06:26:33;17.40;99.90
22491;DHT22;11412;50.802;4.350;2023-07-31T06:28:59;17.40;99.90
22491;DHT22;11412;50.802;4.350;2023-07-31T06:31:24;17.50;99.90
22491;DHT22;11412;50.802;4.350;2023-07-31T06:33:51;17.50;99.90
22491;DHT22;11412;50.802;4.350;2023-07-31T06:36:17;17.50;99.90
22491;DHT22;11412;50.802;4.350;2023-07-31T06:38:42;17.50;99.90
22491;DHT22;11412;50.802;4.350;2023-07-31T06:41:08;17.60;99.90
22491;DHT22;11412;50.802;4.350;2023-07-31T06:43:34;17.60;99.90
22491;DHT22;11412;50.802;4.350;2023-07-31T06:46:05;17.50;99.90
22491;DHT22;11412;50.802;4.350;2023-07-31T06:48:31;17.60;99.90
22491;DHT22;11412;50.802;4.350;2023-07-31T06:50:56;17.50;99.90
22491;DHT22;11412;50.802;4.350;2023-07-31T06:53:22;17.50;99.90
22491;DHT22;11412;50.802;4.350;2023-07-31T06:55:48;17.50;99.90
22491;DHT22;11412;50.802;4.350;2023-07-31T06:58:13;17.70;99.90
22491;DHT22;11412;50.802;4.350;2023-07-31T07:00:39;17.70;99.90
22491;DHT22;11412;50.802;4.350;2023-07-31T07:03:05;17.80;99.90
22491;DHT22;11412;50.802;4.350;2023-07-31T07:05:30;17.80;99.90
22491;DHT22;11412;50.802;4.350;2023-07-31T07:07:56;17.70;99.90
22491;DHT22;11412;50.802;4.350;2023-07-31T07:10:22;17.80;99.90
22491;DHT22;11412;50.802;4.350;2023-07-31T07:12:47;17.90;99.90
22491;DHT22;11412;50.802;4.350;2023-07-31T07:15:14;17.90;99.90
22491;DHT22;11412;50.802;4.350;2023-07-31T07:17:39;18.00;99.90
22491;DHT22;11412;50.802;4.350;2023-07-31T07:20:06;18.00;99.90
22491;DHT22;11412;50.802;4.350;2023-07-31T07:22:31;17.90;99.90
22491;DHT22;11412;50.802;4.350;2023-07-31T07:25:00;17.90;99.90
22491;DHT22;11412;50.802;4.350;2023-07-31T07:27:25;17.80;99.90
22491;DHT22;11412;50.802;4.350;2023-07-31T07:29:51;17.80;99.90
22491;DHT22;11412;50.802;4.350;2023-07-31T07:32:20;17.90;99.90
22491;DHT22;11412;50.802;4.350;2023-07-31T07:34:47;17.90;99.90
22491;DHT22;11412;50.802;4.350;2023-07-31T07:37:13;17.90;99.90
22491;DHT22;11412;50.802;4.350;2023-07-31T07:39:39;17.90;99.90
22491;DHT22;11412;50.802;4.350;2023-07-31T07:42:04;17.90;99.90
22491;DHT22;11412;50.802;4.350;2023-07-31T07:44:30;17.80;99.90
22491;DHT22;11412;50.802;4.350;2023-07-31T07:46:55;17.80;99.90
22491;DHT22;11412;50.802;4.350;2023-07-31T07:49:21;17.80;99.90
22491;DHT22;11412;50.802;4.350;2023-07-31T07:51:48;17.80;99.90
22491;DHT22;11412;50.802;4.350;2023-07-31T07:54:15;17.90;99.90
22491;DHT22;11412;50.802;4.350;2023-07-31T07:56:42;17.90;99.90
22491;DHT22;11412;50.802;4.350;2023-07-31T07:59:08;17.90;99.90
22491;DHT22;11412;50.802;4.350;2023-07-31T08:01:34;17.90;99.90
22491;DHT22;11412;50.802;4.350;2023-07-31T08:03:59;18.00;99.90
22491;DHT22;11412;50.802;4.350;2023-07-31T08:06:25;18.10;99.90
22491;DHT22;11412;50.802;4.350;2023-07-31T08:08:51;18.20;99.90
22491;DHT22;11412;50.802;4.350;2023-07-31T08:11:16;18.30;99.90
22491;DHT22;11412;50.802;4.350;2023-07-31T08:13:42;18.20;99.90
22491;DHT22;11412;50.802;4.350;2023-07-31T08:16:08;18.00;99.90
22491;DHT22;11412;50.802;4.350;2023-07-31T08:18:34;18.00;99.90
22491;DHT22;11412;50.802;4.350;2023-07-31T08:21:01;18.20;99.90
22491;DHT22;11412;50.802;4.350;2023-07-31T08:23:26;18.00;99.90
22491;DHT22;11412;50.802;4.350;2023-07-31T08:25:52;18.00;99.90
22491;DHT22;11412;50.802;4.350;2023-07-31T08:28:17;18.00;99.90
22491;DHT22;11412;50.802;4.350;2023-07-31T08:30:43;18.10;99.90
22491;DHT22;11412;50.802;4.350;2023-07-31T08:33:09;18.30;99.90
22491;DHT22;11412;50.802;4.350;2023-07-31T08:35:34;18.30;99.90
22491;DHT22;11412;50.802;4.350;2023-07-31T08:38:00;18.30;99.90
22491;DHT22;11412;50.802;4.350;2023-07-31T08:40:25;18.30;99.90
22491;DHT22;11412;50.802;4.350;2023-07-31T08:42:54;18.30;99.90
22491;DHT22;11412;50.802;4.350;2023-07-31T08:45:22;18.20;99.90
22491;DHT22;11412;50.802;4.350;2023-07-31T08:47:50;18.30;99.90
22491;DHT22;11412;50.802;4.350;2023-07-31T08:50:18;18.20;99.90
22491;DHT22;11412;50.802;4.350;2023-07-31T08:52:45;18.30;99.90
22491;DHT22;11412;50.802;4.350;2023-07-31T08:55:11;18.50;99.90
22491;DHT22;11412;50.802;4.350;2023-07-31T08:57:38;18.50;99.90
22491;DHT22;11412;50.802;4.350;2023-07-31T09:00:05;18.30;99.90
22491;DHT22;11412;50.802;4.350;2023-07-31T09:05:09;18.20;99.90
22491;DHT22;11412;50.802;4.350;2023-07-31T09:07:36;18.20;99.90
22491;DHT22;11412;50.802;4.350;2023-07-31T09:10:03;18.30;99.90
22491;DHT22;11412;50.802;4.350;2023-07-31T09:12:29;18.30;99.90
22491;DHT22;11412;50.802;4.350;2023-07-31T09:14:57;18.50;99.90
22491;DHT22;11412;50.802;4.350;2023-07-31T09:17:33;18.40;99.90
22491;DHT22;11412;50.802;4.350;2023-07-31T09:20:16;18.50;99.90
22491;DHT22;11412;50.802;4.350;2023-07-31T09:22:42;18.50;99.90
22491;DHT22;11412;50.802;4.350;2023-07-31T09:25:20;18.70;99.90
22491;DHT22;11412;50.802;4.350;2023-07-31T09:30:19;18.50;99.90
22491;DHT22;11412;50.802;4.350;2023-07-31T09:32:46;18.70;99.90
22491;DHT22;11412;50.802;4.350;2023-07-31T09:35:28;18.80;99.90
22491;DHT22;11412;50.802;4.350;2023-07-31T09:37:57;18.80;99.90
22491;DHT22;11412;50.802;4.350;2023-07-31T09:40:34;18.80;99.90
22491;DHT22;11412;50.802;4.350;2023-07-31T09:43:01;18.80;99.90
22491;DHT22;11412;50.802;4.350;2023-07-31T09:45:27;18.70;99.90
22491;DHT22;11412;50.802;4.350;2023-07-31T09:47:54;18.60;99.90
22491;DHT22;11412;50.802;4.350;2023-07-31T09:50:24;18.60;99.90
22491;DHT22;11412;50.802;4.350;2023-07-31T09:52:51;18.50;99.90
22491;DHT22;11412;50.802;4.350;2023-07-31T09:55:18;18.60;99.90
22491;DHT22;11412;50.802;4.350;2023-07-31T09:57:48;18.60;99.90
22491;DHT22;11412;50.802;4.350;2023-07-31T10:00:16;18.70;99.90
22491;DHT22;11412;50.802;4.350;2023-07-31T10:02:47;18.60;99.90
22491;DHT22;11412;50.802;4.350;2023-07-31T10:05:15;18.60;99.90
22491;DHT22;11412;50.802;4.350;2023-07-31T10:07:45;18.70;99.90
22491;DHT22;11412;50.802;4.350;2023-07-31T10:10:11;18.70;99.90
22491;DHT22;11412;50.802;4.350;2023-07-31T10:12:39;18.60;99.90
22491;DHT22;11412;50.802;4.350;2023-07-31T10:15:05;18.70;99.90
22491;DHT22;11412;50.802;4.350;2023-07-31T10:17:31;18.80;99.90
22491;DHT22;11412;50.802;4.350;2023-07-31T10:19:58;19.00;99.90
22491;DHT22;11412;50.802;4.350;2023-07-31T10:22:30;18.90;99.90
22491;DHT22;11412;50.802;4.350;2023-07-31T10:24:58;18.80;99.90
22491;DHT22;11412;50.802;4.350;2023-07-31T10:27:24;18.70;99.90
22491;DHT22;11412;50.802;4.350;2023-07-31T10:29:50;18.80;99.90
22491;DHT22;11412;50.802;4.350;2023-07-31T10:32:17;19.00;99.90
22491;DHT22;11412;50.802;4.350;2023-07-31T10:34:45;19.10;99.90
22491;DHT22;11412;50.802;4.350;2023-07-31T10:37:36;19.00;99.90
22491;DHT22;11412;50.802;4.350;2023-07-31T10:40:18;19.00;99.90
22491;DHT22;11412;50.802;4.350;2023-07-31T10:42:51;18.90;99.90
22491;DHT22;11412;50.802;4.350;2023-07-31T10:45:37;18.80;99.90
22491;DHT22;11412;50.802;4.350;2023-07-31T10:48:04;18.90;99.90
22491;DHT22;11412;50.802;4.350;2023-07-31T10:50:31;18.80;99.90
22491;DHT22;11412;50.802;4.350;2023-07-31T10:52:58;19.00;99.90
22491;DHT22;11412;50.802;4.350;2023-07-31T10:57:57;19.00;99.90
22491;DHT22;11412;50.802;4.350;2023-07-31T11:00:27;19.10;99.90
22491;DHT22;11412;50.802;4.350;2023-07-31T11:03:17;19.20;99.90
22491;DHT22;11412;50.802;4.350;2023-07-31T11:05:50;19.20;99.90
22491;DHT22;11412;50.802;4.350;2023-07-31T11:10:43;19.10;99.90
22491;DHT22;11412;50.802;4.350;2023-07-31T11:13:10;19.20;99.90
22491;DHT22;11412;50.802;4.350;2023-07-31T11:15:36;19.30;99.90
22491;DHT22;11412;50.802;4.350;2023-07-31T11:18:02;19.20;99.90
22491;DHT22;11412;50.802;4.350;2023-07-31T11:20:37;19.10;99.90
22491;DHT22;11412;50.802;4.350;2023-07-31T11:23:06;19.20;99.90
22491;DHT22;11412;50.802;4.350;2023-07-31T11:25:33;19.30;99.90
22491;DHT22;11412;50.802;4.350;2023-07-31T11:28:10;19.20;99.90
22491;DHT22;11412;50.802;4.350;2023-07-31T11:30:36;19.10;99.90
22491;DHT22;11412;50.802;4.350;2023-07-31T11:33:03;19.20;99.90
22491;DHT22;11412;50.802;4.350;2023-07-31T11:35:46;19.20;99.90
22491;DHT22;11412;50.802;4.350;2023-07-31T11:38:24;19.30;99.90
22491;DHT22;11412;50.802;4.350;2023-07-31T11:40:51;19.40;99.90
22491;DHT22;11412;50.802;4.350;2023-07-31T11:43:18;19.40;99.90
22491;DHT22;11412;50.802;4.350;2023-07-31T11:45:52;19.30;99.90
22491;DHT22;11412;50.802;4.350;2023-07-31T11:50:51;19.30;99.90
22491;DHT22;11412;50.802;4.350;2023-07-31T11:53:20;19.20;99.90
22491;DHT22;11412;50.802;4.350;2023-07-31T11:55:47;19.30;99.90
22491;DHT22;11412;50.802;4.350;2023-07-31T11:58:14;19.30;99.90
22491;DHT22;11412;50.802;4.350;2023-07-31T12:00:41;19.40;99.90
22491;DHT22;11412;50.802;4.350;2023-07-31T12:03:06;19.40;99.90
22491;DHT22;11412;50.802;4.350;2023-07-31T12:05:32;19.40;99.90
22491;DHT22;11412;50.802;4.350;2023-07-31T12:07:58;19.40;99.90
22491;DHT22;11412;50.802;4.350;2023-07-31T12:10:31;19.40;99.90
22491;DHT22;11412;50.802;4.350;2023-07-31T12:13:01;19.40;99.90
22491;DHT22;11412;50.802;4.350;2023-07-31T12:15:37;19.50;99.90
22491;DHT22;11412;50.802;4.350;2023-07-31T12:18:14;19.60;99.90
22491;DHT22;11412;50.802;4.350;2023-07-31T12:20:47;19.60;99.90
22491;DHT22;11412;50.802;4.350;2023-07-31T12:23:21;19.70;99.90
22491;DHT22;11412;50.802;4.350;2023-07-31T12:26:03;19.60;99.90
22491;DHT22;11412;50.802;4.350;2023-07-31T12:28:30;19.60;99.90
22491;DHT22;11412;50.802;4.350;2023-07-31T12:31:00;19.60;99.90
22491;DHT22;11412;50.802;4.350;2023-07-31T12:33:31;19.60;99.90
22491;DHT22;11412;50.802;4.350;2023-07-31T12:36:00;19.60;99.90
22491;DHT22;11412;50.802;4.350;2023-07-31T12:38:25;19.50;99.90
22491;DHT22;11412;50.802;4.350;2023-07-31T12:40:51;19.50;99.90
22491;DHT22;11412;50.802;4.350;2023-07-31T12:43:17;19.50;99.90
22491;DHT22;11412;50.802;4.350;2023-07-31T12:45:42;19.70;99.90
22491;DHT22;11412;50.802;4.350;2023-07-31T12:48:08;19.70;99.90
22491;DHT22;11412;50.802;4.350;2023-07-31T12:50:34;19.90;99.90
22491;DHT22;11412;50.802;4.350;2023-07-31T12:53:02;20.00;99.90
22491;DHT22;11412;50.802;4.350;2023-07-31T12:55:29;19.90;99.90
22491;DHT22;11412;50.802;4.350;2023-07-31T12:57:55;19.90;99.90
22491;DHT22;11412;50.802;4.350;2023-07-31T13:00:22;19.90;99.90
22491;DHT22;11412;50.802;4.350;2023-07-31T13:02:47;19.80;99.90
22491;DHT22;11412;50.802;4.350;2023-07-31T13:05:13;19.80;99.90
22491;DHT22;11412;50.802;4.350;2023-07-31T13:07:39;19.80;99.90
22491;DHT22;11412;50.802;4.350;2023-07-31T13:10:06;19.70;99.90
22491;DHT22;11412;50.802;4.350;2023-07-31T13:12:32;19.50;99.90
22491;DHT22;11412;50.802;4.350;2023-07-31T13:14:57;19.50;99.90
22491;DHT22;11412;50.802;4.350;2023-07-31T13:17:23;19.50;99.90
22491;DHT22;11412;50.802;4.350;2023-07-31T13:19:49;19.60;99.90
22491;DHT22;11412;50.802;4.350;2023-07-31T13:22:14;19.40;99.90
22491;DHT22;11412;50.802;4.350;2023-07-31T13:24:40;19.40;99.90
22491;DHT22;11412;50.802;4.350;2023-07-31T13:27:05;19.40;99.90
22491;DHT22;11412;50.802;4.350;2023-07-31T13:29:32;19.30;99.90
22491;DHT22;11412;50.802;4.350;2023-07-31T13:31:58;19.30;99.90
22491;DHT22;11412;50.802;4.350;2023-07-31T13:34:24;19.20;99.90
22491;DHT22;11412;50.802;4.350;2023-07-31T13:36:50;19.10;99.90
22491;DHT22;11412;50.802;4.350;2023-07-31T13:39:17;19.10;99.90
22491;DHT22;11412;50.802;4.350;2023-07-31T13:41:43;19.00;99.90
22491;DHT22;11412;50.802;4.350;2023-07-31T13:44:08;19.00;99.90
22491;DHT22;11412;50.802;4.350;2023-07-31T13:46:34;19.00;99.90
22491;DHT22;11412;50.802;4.350;2023-07-31T13:48:59;19.00;99.90
22491;DHT22;11412;50.802;4.350;2023-07-31T13:51:26;19.00;99.90
22491;DHT22;11412;50.802;4.350;2023-07-31T13:53:53;19.10;99.90
22491;DHT22;11412;50.802;4.350;2023-07-31T13:56:20;19.10;99.90
22491;DHT22;11412;50.802;4.350;2023-07-31T13:58:47;19.10;99.90
22491;DHT22;11412;50.802;4.350;2023-07-31T14:01:12;19.00;99.90
22491;DHT22;11412;50.802;4.350;2023-07-31T14:03:38;19.00;99.90
22491;DHT22;11412;50.802;4.350;2023-07-31T14:06:04;19.00;99.90
22491;DHT22;11412;50.802;4.350;2023-07-31T14:08:29;19.00;99.90
22491;DHT22;11412;50.802;4.350;2023-07-31T14:10:55;18.90;99.90
22491;DHT22;11412;50.802;4.350;2023-07-31T14:13:21;19.00;99.90
22491;DHT22;11412;50.802;4.350;2023-07-31T14:15:47;19.00;99.90
22491;DHT22;11412;50.802;4.350;2023-07-31T14:18:13;19.00;99.90
22491;DHT22;11412;50.802;4.350;2023-07-31T14:20:38;19.00;99.90
22491;DHT22;11412;50.802;4.350;2023-07-31T14:23:04;19.10;99.90
22491;DHT22;11412;50.802;4.350;2023-07-31T14:25:30;19.00;99.90
22491;DHT22;11412;50.802;4.350;2023-07-31T14:27:56;18.90;99.90
22491;DHT22;11412;50.802;4.350;2023-07-31T14:30:21;18.90;99.90
22491;DHT22;11412;50.802;4.350;2023-07-31T14:32:47;18.90;99.90
22491;DHT22;11412;50.802;4.350;2023-07-31T14:35:13;18.90;99.90
22491;DHT22;11412;50.802;4.350;2023-07-31T14:37:43;18.90;99.90
22491;DHT22;11412;50.802;4.350;2023-07-31T14:40:11;18.90;99.90
22491;DHT22;11412;50.802;4.350;2023-07-31T14:42:37;18.90;99.90
22491;DHT22;11412;50.802;4.350;2023-07-31T14:45:04;19.00;99.90
22491;DHT22;11412;50.802;4.350;2023-07-31T14:47:29;19.00;99.90
22491;DHT22;11412;50.802;4.350;2023-07-31T14:49:56;18.90;99.90
22491;DHT22;11412;50.802;4.350;2023-07-31T14:52:22;18.90;99.90
22491;DHT22;11412;50.802;4.350;2023-07-31T14:54:47;18.80;99.90
22491;DHT22;11412;50.802;4.350;2023-07-31T14:57:13;18.80;99.90
22491;DHT22;11412;50.802;4.350;2023-07-31T14:59:39;18.90;99.90
22491;DHT22;11412;50.802;4.350;2023-07-31T15:02:05;18.90;99.90
22491;DHT22;11412;50.802;4.350;2023-07-31T15:04:31;18.80;99.90
22491;DHT22;11412;50.802;4.350;2023-07-31T15:06:56;18.80;99.90
22491;DHT22;11412;50.802;4.350;2023-07-31T15:09:22;18.90;99.90
22491;DHT22;11412;50.802;4.350;2023-07-31T15:11:48;18.80;99.90
22491;DHT22;11412;50.802;4.350;2023-07-31T15:14:13;18.80;99.90
22491;DHT22;11412;50.802;4.350;2023-07-31T15:16:39;18.80;99.90
22491;DHT22;11412;50.802;4.350;2023-07-31T15:19:05;18.80;99.90
22491;DHT22;11412;50.802;4.350;2023-07-31T15:21:30;18.80;99.90
22491;DHT22;11412;50.802;4.350;2023-07-31T15:23:56;18.80;99.90
22491;DHT22;11412;50.802;4.350;2023-07-31T15:26:21;18.80;99.90
22491;DHT22;11412;50.802;4.350;2023-07-31T15:28:50;18.70;99.90
22491;DHT22;11412;50.802;4.350;2023-07-31T15:31:20;18.70;99.90
22491;DHT22;11412;50.802;4.350;2023-07-31T15:33:47;18.70;99.90
22491;DHT22;11412;50.802;4.350;2023-07-31T15:36:13;18.70;99.90
22491;DHT22;11412;50.802;4.350;2023-07-31T15:38:39;18.60;99.90
22491;DHT22;11412;50.802;4.350;2023-07-31T15:41:05;18.60;99.90
22491;DHT22;11412;50.802;4.350;2023-07-31T15:43:31;18.60;99.90
22491;DHT22;11412;50.802;4.350;2023-07-31T15:45:57;18.70;99.90